Metar Aeropuerto Ibiza
Despejado
Despejado
STATION : LEIB
METAR : 2018/01/16 21:30 LEIB 162130Z 23010KT CAVOK 14/12 Q1022 NOSIG
WINDMPH : SW at 12 mph
WIND : SW at 12 mph (19 km/h)
VISIBILITY : greater than 7 miles (10 km)
CONDITIONS : Clear
TEMP : 57°F (14°C)
DEWPT : 54°F (12°C)
HUMIDITY : 88%
BAROMETER : 30.18 inHg (1022 hPa)
RAW-METAR : 2018/01/16 21:30 LEIB 162130Z 23010KT CAVOK 14/12 Q1022 NOSIG
 Publicidad